Aeroporto :
LOGIN :

Iscrizione | Disclaimer

   EN    FR    IT 

 










Sommario :    VFR   VFR Marginale   IFR   IFR Intensivo   IFR Molto Intensivo
Visibilità : 
Base nubi : 
>= 8 km
>= 3000ft
5 / 8 km
1000 / 3000 ft
1500m / 5 km
500 / 1000 ft
800 / 1500m
200 / 500 ft
< 800m
< 200 ft
Simboli :   Temporali  Nebbia  Neve Forte  Precipitazioni Forti  Vento > 20 kt
SIGMETs :   Varie  Temporali  Ghiacco  Turbolenza  Onda orograficha  Ceneri Vulcaniche







- Altitudine del aeroporto : 527 ft
- Codice IATA : DBV


LDDU - Dubrovnik

ULTIMO METAR :
  • 191430Z 17006KT 100V220 9999 FEW016 SCT023 13/07 Q1022 NOSIG

METARs OBSOLETI :
  • 191400Z 20006KT 140V240 9999 FEW016 SCT023 14/08 Q1022 NOSIG
  • 191330Z 19007KT 140V240 9999 SCT023 13/08 Q1022 NOSIG
  • 191300Z 19008KT 130V220 9999 FEW026 13/08 Q1022 NOSIG
  • 191230Z VRB08KT 9999 FEW026 13/08 Q1022 NOSIG
  • 191200Z 16008KT 060V220 CAVOK 13/07 Q1022 NOSIG

TAF TAF LDDU
Valido dal 19 a 12 ore il 20 a 12 ore UTC


191125Z 1912/2012 16008KT 9999 SCT020 TX13/1912Z TN05/2005Z
BECMG 1913/1915 VRB02KT
PROB30
TEMPO 1920/2006 09007KT 0200 PRFG
Nessun NOTAM noto per questo aeroporto.



MetMap, La meteo Aeronautica in un colpo d'occhio ! - Copyright ORBIFLY Dicembre 2007 - Disclaimer

ORBIFLY MET'MAP TEAM :

Programmazione e sviluppo : Alexandra Zaïnal
Concezione e sviluppo : Baudouin d'Aumeries
Co-Programmazione e sviluppo : Marc-Olivier Méhu
Supporto tecnico e logistico : Manuel Goepfert
Aiuto per la traduzione : Arnaldo La Scala

Contatto : metmap@orbifly.com




FONTI E CREDITI :

   NOAA